createdAt,value
2019-01-21T00:00:43.020Z,76.50
2019-01-21T00:01:42.924Z,79.30
2019-01-21T00:02:42.948Z,79.60
2019-01-21T00:03:42.970Z,79.20
2019-01-21T00:04:42.998Z,80.00
2019-01-21T00:05:43.017Z,82.80
2019-01-21T00:06:43.039Z,74.10
2019-01-21T00:07:43.067Z,80.90
2019-01-21T00:08:43.086Z,79.20
2019-01-21T00:09:43.110Z,80.00
2019-01-21T00:10:43.132Z,80.40
2019-01-21T00:11:43.157Z,77.70
2019-01-21T00:12:43.179Z,82.00
2019-01-21T00:13:43.205Z,77.90
2019-01-21T00:14:43.226Z,73.40
2019-01-21T00:15:43.272Z,76.80
2019-01-21T00:16:43.272Z,78.80
2019-01-21T00:17:43.295Z,77.50
2019-01-21T00:18:43.319Z,82.00
2019-01-21T00:19:43.343Z,80.40
2019-01-21T00:20:43.473Z,81.80
2019-01-21T00:21:43.393Z,81.00
2019-01-21T00:22:43.413Z,80.50
2019-01-21T00:23:43.434Z,81.80
2019-01-21T00:24:43.458Z,76.70
2019-01-21T00:25:43.483Z,81.90
2019-01-21T00:26:43.505Z,80.60
2019-01-21T00:27:43.528Z,80.90
2019-01-21T00:28:43.552Z,81.90
2019-01-21T00:29:43.576Z,75.20
2019-01-21T00:30:43.599Z,77.80
2019-01-21T00:31:43.621Z,82.00
2019-01-21T00:32:43.645Z,75.20
2019-01-21T00:33:43.670Z,79.10
2019-01-21T00:34:43.692Z,77.70
2019-01-21T00:35:43.717Z,76.40
2019-01-21T00:36:43.739Z,75.80
2019-01-21T00:37:43.765Z,78.10
2019-01-21T00:38:43.786Z,79.00
2019-01-21T00:39:43.811Z,76.20
2019-01-21T00:40:43.832Z,77.50
2019-01-21T00:41:43.857Z,78.60
2019-01-21T00:42:43.880Z,76.70
2019-01-21T00:43:43.903Z,80.90
2019-01-21T00:44:43.928Z,76.80
2019-01-21T00:45:43.952Z,77.80
2019-01-21T00:46:43.973Z,76.30
2019-01-21T00:47:43.996Z,82.60
2019-01-21T00:48:44.021Z,74.60
2019-01-21T00:49:44.045Z,81.70
2019-01-21T00:50:44.069Z,76.70
2019-01-21T00:51:44.091Z,81.30
2019-01-21T00:52:44.116Z,73.40
2019-01-21T00:53:44.139Z,78.20
2019-01-21T00:54:44.161Z,76.80
2019-01-21T00:55:44.185Z,81.60
2019-01-21T00:56:44.208Z,76.90
2019-01-21T00:57:44.234Z,74.40
2019-01-21T00:58:44.258Z,74.30
2019-01-21T00:59:44.280Z,76.60
2019-01-21T01:00:44.303Z,80.70
2019-01-21T01:01:44.327Z,78.30
2019-01-21T01:02:44.352Z,75.30
2019-01-21T01:03:44.375Z,80.40
2019-01-21T01:04:44.398Z,77.90
2019-01-21T01:05:44.420Z,85.40
2019-01-21T01:06:44.446Z,75.90
2019-01-21T01:07:44.469Z,76.80
2019-01-21T01:08:44.497Z,83.60
2019-01-21T01:09:44.516Z,81.90
2019-01-21T01:10:44.541Z,79.90
2019-01-21T01:11:44.563Z,78.60
2019-01-21T01:12:44.588Z,79.40
2019-01-21T01:13:44.610Z,83.00
2019-01-21T01:14:44.633Z,79.80
2019-01-21T01:15:44.660Z,76.70
2019-01-21T01:16:44.680Z,76.70
2019-01-21T01:17:44.705Z,81.00
2019-01-21T01:18:44.726Z,79.90
2019-01-21T01:19:44.751Z,79.20
2019-01-21T01:20:44.773Z,79.50
2019-01-21T01:21:44.798Z,80.50
2019-01-21T01:22:44.822Z,79.80
2019-01-21T01:23:44.844Z,77.10
2019-01-21T01:24:44.869Z,83.50
2019-01-21T01:25:44.891Z,81.10
2019-01-21T01:26:44.915Z,82.00
2019-01-21T01:27:44.939Z,86.30
2019-01-21T01:28:44.961Z,82.20
2019-01-21T01:29:44.984Z,86.30
2019-01-21T01:30:45.008Z,79.80
2019-01-21T01:31:45.032Z,90.90
2019-01-21T01:32:45.058Z,82.20
2019-01-21T01:33:45.077Z,80.00
2019-01-21T01:34:45.100Z,84.40
2019-01-21T01:35:45.124Z,86.30
2019-01-21T01:36:45.150Z,83.10
2019-01-21T01:37:45.171Z,83.00
2019-01-21T01:38:45.192Z,77.30
2019-01-21T01:39:45.217Z,82.00
2019-01-21T01:40:45.240Z,87.10
2019-01-21T01:41:45.263Z,83.60
2019-01-21T01:42:45.286Z,85.50
2019-01-21T01:43:45.310Z,88.40
2019-01-21T01:44:45.335Z,88.90
2019-01-21T01:45:45.356Z,85.50
2019-01-21T01:46:45.379Z,90.30
2019-01-21T01:47:45.404Z,86.30
2019-01-21T01:48:46.604Z,88.70
2019-01-21T01:49:45.448Z,83.30
2019-01-21T01:50:45.471Z,81.00
2019-01-21T01:51:45.494Z,82.10
2019-01-21T01:52:45.519Z,86.10
2019-01-21T01:53:45.542Z,91.10
2019-01-21T01:54:45.564Z,84.80
2019-01-21T01:55:45.587Z,79.90
2019-01-21T01:56:45.611Z,81.50
2019-01-21T01:57:45.634Z,87.80
2019-01-21T01:58:45.655Z,82.20
2019-01-21T01:59:45.679Z,88.50
2019-01-21T02:00:45.700Z,84.50
2019-01-21T02:01:45.727Z,84.10
2019-01-21T02:02:45.747Z,83.70
2019-01-21T02:03:45.771Z,86.10
2019-01-21T02:04:45.793Z,83.30
2019-01-21T02:05:45.816Z,82.10
2019-01-21T02:06:45.840Z,89.30
2019-01-21T02:07:45.863Z,88.40
2019-01-21T02:08:45.885Z,88.40
2019-01-21T02:09:45.908Z,87.60
2019-01-21T02:10:45.931Z,86.50
2019-01-21T02:11:45.956Z,85.40
2019-01-21T02:12:45.975Z,90.70
2019-01-21T02:13:45.999Z,99.20
2019-01-21T02:14:46.023Z,86.10
2019-01-21T02:15:46.048Z,84.20
2019-01-21T02:16:46.069Z,87.80
2019-01-21T02:17:51.984Z,83.50
2019-01-21T02:18:46.116Z,86.80
2019-01-21T02:19:46.138Z,84.00
2019-01-21T02:20:46.161Z,95.20
2019-01-21T02:21:46.193Z,85.00
2019-01-21T02:22:46.207Z,86.00
2019-01-21T02:23:46.274Z,82.10
2019-01-21T02:24:46.253Z,91.30
2019-01-21T02:25:46.277Z,92.40
2019-01-21T02:26:46.299Z,85.10
2019-01-21T02:27:46.323Z,90.80
2019-01-21T02:28:46.347Z,86.70
2019-01-21T02:29:46.370Z,85.90
2019-01-21T02:30:46.392Z,90.00
2019-01-21T02:31:46.492Z,85.60
2019-01-21T02:32:46.440Z,86.10
2019-01-21T02:33:46.464Z,79.60
2019-01-21T02:34:46.485Z,89.60
2019-01-21T02:35:46.508Z,92.40
2019-01-21T02:36:46.533Z,88.20
2019-01-21T02:37:46.556Z,90.50
2019-01-21T02:38:46.579Z,96.10
2019-01-21T02:39:46.603Z,101.30
2019-01-21T02:40:46.625Z,94.20
2019-01-21T02:41:46.650Z,97.10
2019-01-21T02:42:46.671Z,95.50
2019-01-21T02:43:46.694Z,96.80
2019-01-21T02:44:46.718Z,92.50
2019-01-21T02:45:46.742Z,92.30
2019-01-21T02:46:46.769Z,94.30
2019-01-21T02:47:46.789Z,93.60
2019-01-21T02:48:46.811Z,89.30
2019-01-21T02:49:46.836Z,87.60
2019-01-21T02:50:46.858Z,94.00
2019-01-21T02:51:46.883Z,91.40
2019-01-21T02:52:46.905Z,89.70
2019-01-21T02:53:46.931Z,87.40
2019-01-21T02:54:46.951Z,90.80
2019-01-21T02:55:46.975Z,88.40
2019-01-21T02:56:47.000Z,94.50
2019-01-21T02:57:47.024Z,93.40
2019-01-21T02:58:47.045Z,94.50
2019-01-21T02:59:47.069Z,95.00
2019-01-21T03:00:47.092Z,91.40
2019-01-21T03:01:47.117Z,88.60
2019-01-21T03:02:47.138Z,87.70
2019-01-21T03:03:47.162Z,93.80
2019-01-21T03:04:47.187Z,94.20
2019-01-21T03:05:47.210Z,88.70
2019-01-21T03:06:47.232Z,89.80
2019-01-21T03:07:47.258Z,96.50
2019-01-21T03:08:47.282Z,97.70
2019-01-21T03:09:47.302Z,91.10
2019-01-21T03:10:47.327Z,86.70
2019-01-21T03:11:47.349Z,98.40
2019-01-21T03:12:47.372Z,87.50
2019-01-21T03:13:47.397Z,96.70
2019-01-21T03:14:47.423Z,90.20
2019-01-21T03:15:47.442Z,96.30
2019-01-21T03:16:47.465Z,91.20
2019-01-21T03:17:47.490Z,97.40
2019-01-21T03:18:47.512Z,93.90
2019-01-21T03:19:47.535Z,93.90
2019-01-21T03:20:47.559Z,92.40
2019-01-21T03:21:47.585Z,96.90
2019-01-21T03:22:47.607Z,94.30
2019-01-21T03:23:47.630Z,100.00
2019-01-21T03:24:47.653Z,90.70
2019-01-21T03:25:47.675Z,93.80
2019-01-21T03:26:47.698Z,97.10
2019-01-21T03:27:47.724Z,90.10
2019-01-21T03:28:47.747Z,92.90
2019-01-21T03:29:47.772Z,98.60
2019-01-21T03:30:47.798Z,93.70
2019-01-21T03:31:47.823Z,97.60
2019-01-21T03:32:47.840Z,91.90
2019-01-21T03:33:47.864Z,91.50
2019-01-21T03:34:47.892Z,96.20
2019-01-21T03:35:47.910Z,90.60
2019-01-21T03:36:47.933Z,91.90
2019-01-21T03:37:47.958Z,97.00
2019-01-21T03:38:47.978Z,97.10
2019-01-21T03:39:48.002Z,90.70
2019-01-21T03:40:48.025Z,95.50
2019-01-21T03:41:48.050Z,97.10
2019-01-21T03:42:48.072Z,93.60
2019-01-21T03:43:48.121Z,90.90
2019-01-21T03:44:48.118Z,94.60
2019-01-21T03:45:48.142Z,104.60
2019-01-21T03:46:48.164Z,96.00
2019-01-21T03:47:48.189Z,92.60
2019-01-21T03:48:48.214Z,93.20
2019-01-21T03:49:48.234Z,94.40
2019-01-21T03:50:48.258Z,92.90
2019-01-21T03:51:48.282Z,98.40
2019-01-21T03:52:48.304Z,102.10
2019-01-21T03:53:48.344Z,99.30
2019-01-21T03:54:48.350Z,90.70
2019-01-21T03:55:48.376Z,96.80
2019-01-21T03:56:48.399Z,95.80
2019-01-21T03:57:48.423Z,94.00
2019-01-21T03:58:48.444Z,98.00
2019-01-21T03:59:48.619Z,96.60
2019-01-21T04:00:48.493Z,97.10
2019-01-21T04:01:48.513Z,96.30
2019-01-21T04:02:48.536Z,97.80
2019-01-21T04:03:48.559Z,96.90
2019-01-21T04:04:48.584Z,96.40
2019-01-21T04:05:48.607Z,93.00
2019-01-21T04:06:48.630Z,94.60
2019-01-21T04:07:48.652Z,89.00
2019-01-21T04:08:48.676Z,91.30
2019-01-21T04:09:48.700Z,97.70
2019-01-21T04:10:48.724Z,91.50
2019-01-21T04:11:48.744Z,91.10
2019-01-21T04:12:48.770Z,93.30
2019-01-21T04:13:48.791Z,92.40
2019-01-21T04:14:48.815Z,92.20
2019-01-21T04:15:48.837Z,93.60
2019-01-21T04:16:48.860Z,91.50
2019-01-21T04:17:48.884Z,95.20
2019-01-21T04:18:48.907Z,91.50
2019-01-21T04:19:48.929Z,92.60
2019-01-21T04:20:48.954Z,88.40
2019-01-21T04:21:48.977Z,90.30
2019-01-21T04:22:49.001Z,92.20
2019-01-21T04:23:49.028Z,92.30
2019-01-21T04:24:49.049Z,89.80
2019-01-21T04:25:49.070Z,87.90
2019-01-21T04:26:49.092Z,90.60
2019-01-21T04:27:49.116Z,91.20
2019-01-21T04:28:49.141Z,92.60
2019-01-21T04:29:49.161Z,92.90
2019-01-21T04:30:49.185Z,93.80
2019-01-21T04:31:49.208Z,95.90
2019-01-21T04:32:49.231Z,93.60
2019-01-21T04:33:49.255Z,89.70
2019-01-21T04:34:49.276Z,93.20
2019-01-21T04:35:49.301Z,94.00
2019-01-21T04:36:49.325Z,93.00
2019-01-21T04:37:49.348Z,90.50
2019-01-21T04:38:49.374Z,94.50
2019-01-21T04:39:49.393Z,92.50
2019-01-21T04:40:49.416Z,93.50
2019-01-21T04:41:49.439Z,92.80
2019-01-21T04:42:49.462Z,92.30
2019-01-21T04:43:49.489Z,96.60
2019-01-21T04:44:49.516Z,95.90
2019-01-21T04:45:49.535Z,94.90
2019-01-21T04:46:49.555Z,95.30
2019-01-21T04:47:49.576Z,95.30
2019-01-21T04:48:49.601Z,95.50
2019-01-21T04:49:49.626Z,98.50
2019-01-21T04:50:49.648Z,95.00
2019-01-21T04:51:49.670Z,94.90
2019-01-21T04:52:49.866Z,96.90
2019-01-21T04:53:49.717Z,92.90
2019-01-21T04:54:49.741Z,100.90
2019-01-21T04:55:49.762Z,99.70
2019-01-21T04:56:49.785Z,97.30
2019-01-21T04:57:49.808Z,95.50
2019-01-21T04:58:49.837Z,98.80
2019-01-21T04:59:49.855Z,95.10
2019-01-21T05:00:49.878Z,97.00
2019-01-21T05:01:49.909Z,103.00
2019-01-21T05:02:49.924Z,101.70
2019-01-21T05:03:50.143Z,102.20
2019-01-21T05:04:49.970Z,103.60
2019-01-21T05:05:49.996Z,106.50
2019-01-21T05:06:50.016Z,100.50
2019-01-21T05:07:50.041Z,104.70
2019-01-21T05:08:50.061Z,98.80
2019-01-21T05:09:50.084Z,100.70
2019-01-21T05:10:50.110Z,104.90
2019-01-21T05:11:50.131Z,99.00
2019-01-21T05:12:50.153Z,103.80
2019-01-21T05:13:50.176Z,101.40
2019-01-21T05:14:50.200Z,102.40
2019-01-21T05:15:50.234Z,102.80
2019-01-21T05:16:50.246Z,97.50
2019-01-21T05:17:50.291Z,106.00
2019-01-21T05:18:50.290Z,96.40
2019-01-21T05:19:50.314Z,105.20
2019-01-21T05:20:50.337Z,99.20
2019-01-21T05:21:50.362Z,104.10
2019-01-21T05:22:50.382Z,97.30
2019-01-21T05:23:50.407Z,101.90
2019-01-21T05:24:50.428Z,100.60
2019-01-21T05:25:50.452Z,111.20
2019-01-21T05:26:50.493Z,107.20
2019-01-21T05:27:50.496Z,103.90
2019-01-21T05:28:50.519Z,99.20
2019-01-21T05:29:50.543Z,102.90
2019-01-21T05:30:50.565Z,107.00
2019-01-21T05:31:50.588Z,99.90
2019-01-21T05:32:50.610Z,112.40
2019-01-21T05:33:50.633Z,105.50
2019-01-21T05:34:50.654Z,104.90
2019-01-21T05:35:50.678Z,111.60
2019-01-21T05:36:50.701Z,106.50
2019-01-21T05:37:50.725Z,110.70
2019-01-21T05:38:50.745Z,106.10
2019-01-21T05:39:50.770Z,106.00
2019-01-21T05:40:50.791Z,106.40
2019-01-21T05:41:50.814Z,109.70
2019-01-21T05:42:50.835Z,102.00
2019-01-21T05:43:50.858Z,106.30
2019-01-21T05:44:50.881Z,103.50
2019-01-21T05:45:50.905Z,110.20
2019-01-21T05:46:50.925Z,112.90
2019-01-21T05:47:50.954Z,109.00
2019-01-21T05:48:50.974Z,109.70
2019-01-21T05:49:51.046Z,103.60
2019-01-21T05:50:51.154Z,112.20
2019-01-21T05:51:51.044Z,106.70
2019-01-21T05:52:51.062Z,100.00
2019-01-21T05:53:51.085Z,112.10
2019-01-21T05:54:51.107Z,111.50
2019-01-21T05:55:51.130Z,110.80
2019-01-21T05:56:51.151Z,109.40
2019-01-21T05:57:51.175Z,108.50
2019-01-21T05:58:51.196Z,108.20
2019-01-21T05:59:51.221Z,108.80
2019-01-21T06:00:51.242Z,110.50
2019-01-21T06:01:51.265Z,110.10
2019-01-21T06:02:51.287Z,106.90
2019-01-21T06:03:51.308Z,100.30
2019-01-21T06:04:51.343Z,104.90
2019-01-21T06:05:51.356Z,102.10
2019-01-21T06:06:51.375Z,106.50
2019-01-21T06:07:51.400Z,112.40
2019-01-21T06:08:51.422Z,108.40
2019-01-21T06:09:51.445Z,102.80
2019-01-21T06:10:51.465Z,105.30
2019-01-21T06:11:51.489Z,109.00
2019-01-21T06:12:51.512Z,112.80
2019-01-21T06:13:51.535Z,102.60
2019-01-21T06:14:51.556Z,109.60
2019-01-21T06:15:51.578Z,102.80
2019-01-21T06:16:51.603Z,103.10
2019-01-21T06:17:51.625Z,100.80
2019-01-21T06:18:57.177Z,101.60
2019-01-21T06:19:51.673Z,104.30
2019-01-21T06:20:51.697Z,107.00
2019-01-21T06:21:51.715Z,102.90
2019-01-21T06:22:51.737Z,106.90
2019-01-21T06:23:51.759Z,100.80
2019-01-21T06:24:51.782Z,106.70
2019-01-21T06:25:51.807Z,102.50
2019-01-21T06:26:51.826Z,106.50
2019-01-21T06:27:51.849Z,105.30
2019-01-21T06:28:51.873Z,108.50
2019-01-21T06:29:51.895Z,105.00
2019-01-21T06:30:51.921Z,104.00
2019-01-21T06:31:51.942Z,103.80
2019-01-21T06:32:51.962Z,111.10
2019-01-21T06:33:51.985Z,112.10
2019-01-21T06:34:52.006Z,111.30
2019-01-21T06:35:52.030Z,109.10
2019-01-21T06:36:52.052Z,111.10
2019-01-21T06:37:52.076Z,106.80
2019-01-21T06:38:52.097Z,109.00
2019-01-21T06:39:52.120Z,111.30
2019-01-21T06:40:52.142Z,115.40
2019-01-21T06:41:52.165Z,117.60
2019-01-21T06:42:52.187Z,115.00
2019-01-21T06:43:52.209Z,108.70
2019-01-21T06:44:52.236Z,107.90
2019-01-21T06:45:52.255Z,108.40
2019-01-21T06:46:52.276Z,118.60
2019-01-21T06:47:52.300Z,119.30
2019-01-21T06:48:52.322Z,121.90
2019-01-21T06:49:52.344Z,102.90
2019-01-21T06:50:52.368Z,115.70
2019-01-21T06:51:52.392Z,104.60
2019-01-21T06:52:52.412Z,112.30
2019-01-21T06:53:52.435Z,102.50
2019-01-21T06:54:52.458Z,110.80
2019-01-21T06:55:52.479Z,110.60
2019-01-21T06:56:52.502Z,107.20
2019-01-21T06:57:52.526Z,109.90
2019-01-21T06:58:52.548Z,114.80
2019-01-21T06:59:52.571Z,117.50
2019-01-21T07:00:52.593Z,103.60
2019-01-21T07:01:52.618Z,108.60
2019-01-21T07:02:52.637Z,106.10
2019-01-21T07:03:52.660Z,109.90
2019-01-21T07:04:52.707Z,112.60
2019-01-21T07:05:52.705Z,115.30
2019-01-21T07:06:52.728Z,114.90
2019-01-21T07:07:52.749Z,116.80
2019-01-21T07:08:52.773Z,115.00
2019-01-21T07:09:52.796Z,122.70
2019-01-21T07:10:52.816Z,125.60
2019-01-21T07:11:52.839Z,105.90
2019-01-21T07:12:52.861Z,119.30
2019-01-21T07:13:52.885Z,118.80
2019-01-21T07:14:52.905Z,117.10
2019-01-21T07:15:52.929Z,123.20
2019-01-21T07:16:52.953Z,117.40
2019-01-21T07:17:52.974Z,117.20
2019-01-21T07:18:52.995Z,129.50
2019-01-21T07:19:53.021Z,133.40
2019-01-21T07:20:53.042Z,121.20
2019-01-21T07:21:53.064Z,112.40
2019-01-21T07:22:53.087Z,119.20
2019-01-21T07:23:53.148Z,119.50
2019-01-21T07:24:53.131Z,124.40
2019-01-21T07:25:53.155Z,123.30
2019-01-21T07:26:53.176Z,127.50
2019-01-21T07:27:53.199Z,116.40
2019-01-21T07:28:53.224Z,120.90
2019-01-21T07:29:53.245Z,118.50
2019-01-21T07:30:53.266Z,119.20
2019-01-21T07:31:53.290Z,121.30
2019-01-21T07:32:53.312Z,120.00
2019-01-21T07:33:53.335Z,115.40
2019-01-21T07:34:53.358Z,112.00
2019-01-21T07:35:53.380Z,109.60
2019-01-21T07:36:53.405Z,128.70
2019-01-21T07:37:53.427Z,117.20
2019-01-21T07:38:53.451Z,112.20
2019-01-21T07:39:53.472Z,102.70
2019-01-21T07:40:53.496Z,106.70
2019-01-21T07:41:53.517Z,108.70
2019-01-21T07:42:53.539Z,107.50
2019-01-21T07:43:53.563Z,118.30
2019-01-21T07:44:53.586Z,116.70
2019-01-21T07:45:53.608Z,129.00
2019-01-21T07:46:53.629Z,120.60
2019-01-21T07:47:53.653Z,120.40
2019-01-21T07:48:53.676Z,116.00
2019-01-21T07:49:53.699Z,116.60
2019-01-21T07:50:53.728Z,133.90
2019-01-21T07:51:53.744Z,120.40
2019-01-21T07:52:53.767Z,113.50
2019-01-21T07:53:53.789Z,124.00
2019-01-21T07:54:53.812Z,119.60
2019-01-21T07:55:53.834Z,120.00
2019-01-21T07:56:53.857Z,127.70
2019-01-21T07:57:53.880Z,117.80
2019-01-21T07:58:53.903Z,115.70
2019-01-21T07:59:53.926Z,114.60
2019-01-21T08:00:53.951Z,110.00
2019-01-21T08:01:53.971Z,128.20
2019-01-21T08:02:53.993Z,115.20
2019-01-21T08:03:54.017Z,114.50
2019-01-21T08:04:54.041Z,120.90
2019-01-21T08:05:54.062Z,127.80
2019-01-21T08:06:54.085Z,118.00
2019-01-21T08:07:54.108Z,114.70
2019-01-21T08:08:54.131Z,110.40
2019-01-21T08:09:54.154Z,116.30
2019-01-21T08:10:54.174Z,118.10
2019-01-21T08:11:54.197Z,115.30
2019-01-21T08:12:54.224Z,130.00
2019-01-21T08:13:54.242Z,121.10
2019-01-21T08:14:54.265Z,116.00
2019-01-21T08:15:54.288Z,112.70
2019-01-21T08:16:54.312Z,117.80
2019-01-21T08:17:54.335Z,115.30
2019-01-21T08:18:54.357Z,123.30
2019-01-21T08:19:54.379Z,117.70
2019-01-21T08:20:54.403Z,121.40
2019-01-21T08:21:54.425Z,113.80
2019-01-21T08:22:54.447Z,118.30
2019-01-21T08:23:54.471Z,127.70
2019-01-21T08:24:54.497Z,113.60
2019-01-21T08:25:54.516Z,122.60
2019-01-21T08:26:54.538Z,119.40
2019-01-21T08:27:54.561Z,128.60
2019-01-21T08:28:54.584Z,547.10
2019-01-21T08:29:54.606Z,348.80
2019-01-21T08:30:54.629Z,338.00
2019-01-21T08:31:54.652Z,283.20
2019-01-21T08:32:54.677Z,242.30
2019-01-21T08:33:54.698Z,171.60
2019-01-21T08:34:54.719Z,126.30
2019-01-21T08:35:54.743Z,120.40
2019-01-21T08:36:54.765Z,112.00
2019-01-21T08:37:54.789Z,114.10
2019-01-21T08:38:54.812Z,116.90
2019-01-21T08:39:54.833Z,116.60
2019-01-21T08:40:54.858Z,117.80
2019-01-21T08:41:54.880Z,111.70
2019-01-21T08:42:54.903Z,110.50
2019-01-21T08:43:54.925Z,108.70
2019-01-21T08:44:54.948Z,106.90
2019-01-21T08:45:54.971Z,104.50
2019-01-21T08:46:54.994Z,118.80
2019-01-21T08:47:55.016Z,118.20
2019-01-21T08:48:55.040Z,117.20
2019-01-21T08:49:55.062Z,103.90
2019-01-21T08:50:55.084Z,108.40
2019-01-21T08:51:55.109Z,105.70
2019-01-21T08:52:55.133Z,105.20
2019-01-21T08:53:55.154Z,102.00
2019-01-21T08:54:55.176Z,103.40
2019-01-21T08:55:55.199Z,101.40
2019-01-21T08:56:55.225Z,106.00
2019-01-21T08:57:55.248Z,100.00
2019-01-21T08:58:55.268Z,100.50
2019-01-21T08:59:55.291Z,94.80
2019-01-21T09:00:55.315Z,106.40
2019-01-21T09:01:55.340Z,101.80
2019-01-21T09:02:55.364Z,107.20
2019-01-21T09:03:55.384Z,102.70
2019-01-21T09:04:55.408Z,100.30
2019-01-21T09:05:55.435Z,99.70
2019-01-21T09:07:00.667Z,98.30
2019-01-21T09:07:55.476Z,104.00
2019-01-21T09:08:55.499Z,97.50
2019-01-21T09:09:55.524Z,97.00
2019-01-21T09:10:55.545Z,101.10
2019-01-21T09:11:55.570Z,95.10
2019-01-21T09:12:55.594Z,95.60
2019-01-21T09:13:55.617Z,98.70
2019-01-21T09:14:55.639Z,91.70
2019-01-21T09:15:55.662Z,98.90
2019-01-21T09:16:55.686Z,97.60
2019-01-21T09:17:55.712Z,97.50
2019-01-21T09:18:55.732Z,96.60
2019-01-21T09:19:55.759Z,98.60
2019-01-21T09:20:55.780Z,99.70
2019-01-21T09:21:55.805Z,110.10
2019-01-21T09:22:55.825Z,108.10
2019-01-21T09:23:55.850Z,97.40
2019-01-21T09:24:55.877Z,94.60
2019-01-21T09:25:55.898Z,91.70
2019-01-21T09:26:55.921Z,97.40
2019-01-21T09:27:55.944Z,91.40
2019-01-21T09:28:55.967Z,100.00
2019-01-21T09:29:55.989Z,94.20
2019-01-21T09:30:56.015Z,99.40
2019-01-21T09:31:56.038Z,96.30
2019-01-21T09:32:56.062Z,105.30
2019-01-21T09:33:56.085Z,97.90
2019-01-21T09:34:56.108Z,95.60
2019-01-21T09:35:56.132Z,99.70
2019-01-21T09:36:56.157Z,106.40
2019-01-21T09:37:56.182Z,104.10
2019-01-21T09:38:56.201Z,109.60
2019-01-21T09:39:56.224Z,101.60
2019-01-21T09:40:56.249Z,105.40
2019-01-21T09:41:56.277Z,105.70
2019-01-21T09:42:56.295Z,93.00
2019-01-21T09:43:56.319Z,102.90
2019-01-21T09:44:56.342Z,97.90
2019-01-21T09:45:56.368Z,96.70
2019-01-21T09:46:56.391Z,96.30
2019-01-21T09:47:56.413Z,103.50
2019-01-21T09:48:56.436Z,105.40
2019-01-21T09:49:56.460Z,100.10
2019-01-21T09:50:56.483Z,97.20
2019-01-21T09:51:56.507Z,99.00
2019-01-21T09:52:56.532Z,99.80
2019-01-21T09:53:56.553Z,100.00
2019-01-21T09:54:56.577Z,101.30
2019-01-21T09:55:56.854Z,95.80
2019-01-21T09:56:56.625Z,99.40
2019-01-21T09:57:56.648Z,101.00
2019-01-21T09:58:56.671Z,93.30
2019-01-21T09:59:56.693Z,99.10
2019-01-21T10:00:56.719Z,99.90
2019-01-21T10:01:56.744Z,92.40
2019-01-21T10:02:56.764Z,104.20
2019-01-21T10:03:56.788Z,99.60
2019-01-21T10:04:56.813Z,102.50
2019-01-21T10:05:56.905Z,106.90
2019-01-21T10:06:56.857Z,101.00
2019-01-21T10:07:56.881Z,109.20
2019-01-21T10:08:56.905Z,102.70
2019-01-21T10:09:56.929Z,101.60
2019-01-21T10:11:03.202Z,103.40
2019-01-21T10:11:58.679Z,105.90
2019-01-21T10:12:56.999Z,96.50
2019-01-21T10:13:57.022Z,95.50
2019-01-21T10:14:57.046Z,96.00
2019-01-21T10:15:57.070Z,93.30
2019-01-21T10:16:57.095Z,97.50
2019-01-21T10:17:57.117Z,99.50
2019-01-21T10:18:57.140Z,93.60
2019-01-21T10:19:57.164Z,96.70
2019-01-21T10:20:57.189Z,97.20
2019-01-21T10:21:57.212Z,92.90
2019-01-21T10:22:57.235Z,94.50
2019-01-21T10:23:57.262Z,104.20
2019-01-21T10:24:57.289Z,95.00
2019-01-21T10:25:57.307Z,97.60
2019-01-21T10:26:57.331Z,96.60
2019-01-21T10:27:57.354Z,89.00
2019-01-21T10:28:57.379Z,91.70
2019-01-21T10:29:57.403Z,91.10
2019-01-21T10:30:57.427Z,92.30
2019-01-21T10:31:59.431Z,99.90
2019-01-21T10:32:57.474Z,98.00
2019-01-21T10:33:57.498Z,91.10
2019-01-21T10:34:57.521Z,96.30
2019-01-21T10:35:57.545Z,93.80
2019-01-21T10:36:57.570Z,91.30
2019-01-21T10:37:57.594Z,94.50
2019-01-21T10:38:57.616Z,95.20
2019-01-21T10:39:57.640Z,102.30
2019-01-21T10:40:57.664Z,100.90
2019-01-21T10:41:57.689Z,99.70
2019-01-21T10:42:57.712Z,97.00
2019-01-21T10:43:57.735Z,93.70
2019-01-21T10:44:57.758Z,95.80
2019-01-21T10:45:57.783Z,98.70
2019-01-21T10:46:57.807Z,97.70
2019-01-21T10:47:57.830Z,97.00
2019-01-21T10:48:57.854Z,96.30
2019-01-21T10:49:57.878Z,97.60
2019-01-21T10:50:57.901Z,96.40
2019-01-21T10:51:57.925Z,97.50
2019-01-21T10:52:57.950Z,91.20
2019-01-21T10:53:57.973Z,97.70
2019-01-21T10:54:57.996Z,93.80
2019-01-21T10:55:58.024Z,91.60
2019-01-21T10:56:58.044Z,99.20
2019-01-21T10:57:58.069Z,95.60
2019-01-21T10:58:58.091Z,92.60
2019-01-21T10:59:58.116Z,95.50
2019-01-21T11:00:58.140Z,94.20
2019-01-21T11:01:58.163Z,93.80
2019-01-21T11:02:58.188Z,95.00
2019-01-21T11:03:58.211Z,92.20
2019-01-21T11:04:58.236Z,96.50
2019-01-21T11:05:58.259Z,95.30
2019-01-21T11:06:58.285Z,94.70
2019-01-21T11:07:58.307Z,99.20
2019-01-21T11:08:58.331Z,104.20
2019-01-21T11:09:58.354Z,108.80
2019-01-21T11:10:58.377Z,102.70
2019-01-21T11:11:58.403Z,102.10
2019-01-21T11:12:58.425Z,103.70
2019-01-21T11:13:58.452Z,104.70
2019-01-21T11:14:58.472Z,102.30
2019-01-21T11:15:58.496Z,115.70
2019-01-21T11:16:58.519Z,118.50
2019-01-21T11:17:58.581Z,115.60
2019-01-21T11:18:58.567Z,119.50
2019-01-21T11:20:03.929Z,120.70
2019-01-21T11:20:58.614Z,114.30
2019-01-21T11:21:58.638Z,113.40
2019-01-21T11:22:58.660Z,117.40
2019-01-21T11:23:58.684Z,109.60
2019-01-21T11:24:58.708Z,111.10
2019-01-21T11:25:58.730Z,109.70
2019-01-21T11:26:58.754Z,108.90
2019-01-21T11:27:58.777Z,100.90
2019-01-21T11:28:58.801Z,98.00
2019-01-21T11:29:58.826Z,104.60
2019-01-21T11:30:58.847Z,97.50
2019-01-21T11:31:58.871Z,101.80
2019-01-21T11:32:59.202Z,106.40
2019-01-21T11:33:58.918Z,107.90
2019-01-21T11:34:58.940Z,107.00
2019-01-21T11:35:58.963Z,113.70
2019-01-21T11:36:58.988Z,116.90
2019-01-21T11:37:59.010Z,101.60
2019-01-21T11:38:59.032Z,107.70
2019-01-21T11:39:59.055Z,106.30
2019-01-21T11:40:59.082Z,111.60
2019-01-21T11:41:59.103Z,111.40
2019-01-21T11:42:59.125Z,109.80
2019-01-21T11:43:59.148Z,107.70
2019-01-21T11:44:59.171Z,105.10
2019-01-21T11:45:59.195Z,110.10
2019-01-21T11:46:59.218Z,109.00
2019-01-21T11:47:59.241Z,117.30
2019-01-21T11:48:59.264Z,109.50
2019-01-21T11:49:59.291Z,112.10
2019-01-21T11:50:59.311Z,109.30
2019-01-21T11:51:59.333Z,103.90
2019-01-21T11:52:59.357Z,112.00
2019-01-21T11:53:59.380Z,114.30
2019-01-21T11:54:59.408Z,99.40
2019-01-21T11:55:59.426Z,103.00
2019-01-21T11:56:59.449Z,99.10
2019-01-21T11:57:59.473Z,107.00
2019-01-21T11:58:59.531Z,98.70
2019-01-21T11:59:59.521Z,99.90
2019-01-21T12:00:59.544Z,96.30
2019-01-21T12:01:59.566Z,105.20
2019-01-21T12:02:59.590Z,106.60
2019-01-21T12:03:59.615Z,103.70
2019-01-21T12:04:59.637Z,109.00
2019-01-21T12:05:59.660Z,108.00
2019-01-21T12:06:59.683Z,105.40
2019-01-21T12:07:59.707Z,103.10
2019-01-21T12:08:59.731Z,104.20
2019-01-21T12:09:59.755Z,105.50
2019-01-21T12:10:59.779Z,103.80
2019-01-21T12:11:59.804Z,105.60
2019-01-21T12:12:59.827Z,105.90
2019-01-21T12:13:59.849Z,104.20
2019-01-21T12:14:59.870Z,102.90
2019-01-21T12:15:59.894Z,105.80
2019-01-21T12:16:59.921Z,110.00
2019-01-21T12:17:59.945Z,114.00
2019-01-21T12:18:59.963Z,107.50
2019-01-21T12:19:59.994Z,113.80
2019-01-21T12:21:00.010Z,104.60
2019-01-21T12:22:00.035Z,99.60
2019-01-21T12:23:00.056Z,96.40
2019-01-21T12:24:00.081Z,98.20
2019-01-21T12:25:00.208Z,104.80
2019-01-21T12:26:00.128Z,106.00
2019-01-21T12:27:00.150Z,98.80
2019-01-21T12:28:00.179Z,106.50
2019-01-21T12:29:00.197Z,104.20
2019-01-21T12:30:00.221Z,103.90
2019-01-21T12:31:00.244Z,100.80
2019-01-21T12:32:00.268Z,97.70
2019-01-21T12:33:00.293Z,103.60
2019-01-21T12:34:00.316Z,90.40
2019-01-21T12:35:00.339Z,96.30
2019-01-21T12:36:00.365Z,97.10
2019-01-21T12:37:00.388Z,100.00
2019-01-21T12:38:00.411Z,95.60
2019-01-21T12:39:00.435Z,101.60
2019-01-21T12:40:00.459Z,100.00
2019-01-21T12:41:00.530Z,102.40
2019-01-21T12:42:00.513Z,98.50